Time;durP1;ratioP1;P1;durP2;ratioP2;P2;SDS_P1;SDS_P2;PMS_P1;PMS_P2;Temp;Humidity;BMP_temperature;BMP_pressure;BME280_temperature;BME280_humidity;BME280_pressure;Samples;Min_cycle;Max_cycle;Signal;HPM_P1;HPM_P2
2021/07/26 00:01:36;;;;;;;;;;;;;;;;;;5091000;28;19909;-70
2021/07/26 00:04:02;;;;;;;;;;;;;;;;;;5091506;28;19909;-70
2021/07/26 00:06:28;;;;;;;;;;;;;;;;;;5090500;28;20292;-70
2021/07/26 00:08:54;;;;;;;;;;;;;;;;;;5090867;28;19934;-70
2021/07/26 00:11:20;;;;;;;;;;;;;;;;;;5089490;28;19920;-70
2021/07/26 00:13:46;;;;;;;;;;;;;;;;;;5089000;28;19917;-70
2021/07/26 00:16:12;;;;;;;;;;;;;;;;;;5089392;28;19916;-70
2021/07/26 00:18:38;;;;;;;;;;;;;;;;;;5090816;28;20375;-70
2021/07/26 00:21:04;;;;;;;;;;;;;;;;;;5090593;28;19908;-69
2021/07/26 00:23:30;;;;;;;;;;;;;;;;;;5090680;28;19958;-69
2021/07/26 00:25:56;;;;;;;;;;;;;;;;;;5090176;28;20444;-69
2021/07/26 00:28:22;;;;;;;;;;;;;;;;;;5090515;28;20006;-70
2021/07/26 00:30:48;;;;;;;;;;;;;;;;;;5089148;28;19931;-70
2021/07/26 00:33:20;;;;;;;;;;;;;;;;;;5088517;28;19920;-70
2021/07/26 00:37:34;;;;;;;;;;;;;;;;;;5092053;27;20244;-69
2021/07/26 00:40:07;;;;;;;;;;;;;;;;;;5089762;28;19917;-69
2021/07/26 00:42:33;;;;;;;;;;;;;;;;;;5091978;28;19914;-69
2021/07/26 00:44:59;;;;;;;;;;;;;;;;;;5091213;28;19909;-69
2021/07/26 00:47:25;;;;;;;;;;;;;;;;;;5091062;28;19931;-70
2021/07/26 00:49:51;;;;;;;;;;;;;;;;;;5089850;28;19916;-69
2021/07/26 00:52:17;;;;;;;;;;;;;;;;;;5089922;28;19908;-69
2021/07/26 00:54:43;;;;;;;;;;;;;;;;;;5090743;28;19909;-70
2021/07/26 00:57:09;;;;;;;;;;;;;;;;;;5089705;28;19923;-69
2021/07/26 00:59:35;;;;;;;;;;;;;;;;;;5091036;28;20042;-69
2021/07/26 01:02:00;;;;;;;;;;;;;;;;;;5090641;28;19946;-69
2021/07/26 01:04:26;;;;;;;;;;;;;;;;;;5091402;28;19909;-69
2021/07/26 01:08:23;;;;;;;;;;;;;;;;;;5091367;27;19919;-70
2021/07/26 01:10:49;;;;;;;;;;;;;;;;;;5091358;28;19954;-69
2021/07/26 01:13:15;;;;;;;;;;;;;;;;;;5091326;28;19908;-69
2021/07/26 01:15:41;;;;;;;;;;;;;;;;;;5089658;28;19954;-70
2021/07/26 01:18:10;;;;;;;;;;;;;;;;;;5091266;28;20303;-69
2021/07/26 01:20:36;;;;;;;;;;;;;;;;;;5091514;28;19908;-70
2021/07/26 01:23:02;;;;;;;;;;;;;;;;;;5090755;28;19919;-70
2021/07/26 01:25:28;;;;;;;;;;;;;;;;;;5091134;28;19999;-69
2021/07/26 01:27:54;;;;;;;;;;;;;;;;;;5091629;28;20353;-69
2021/07/26 01:30:20;;;;;;;;;;;;;;;;;;5089353;28;19908;-69
2021/07/26 01:32:46;;;;;;;;;;;;;;;;;;5091136;28;19908;-70
2021/07/26 01:35:12;;;;;;;;;;;;;;;;;;5090932;28;20369;-70
2021/07/26 01:37:56;;;;;;;;;;;;;;;;;;5111542;27;19922;-69
2021/07/26 01:40:22;;;;;;;;;;;;;;;;;;5111764;28;19991;-69
2021/07/26 01:42:48;;;;;;;;;;;;;;;;;;5111760;28;20359;-69
2021/07/26 01:45:14;;;;;;;;;;;;;;;;;;5111308;28;19908;-69
2021/07/26 01:47:40;;;;;;;;;;;;;;;;;;5111651;28;19991;-69
2021/07/26 01:50:06;;;;;;;;;;;;;;;;;;5111218;28;20318;-69
2021/07/26 01:52:32;;;;;;;;;;;;;;;;;;5111565;28;19908;-69
2021/07/26 01:54:58;;;;;;;;;;;;;;;;;;5111787;28;19948;-69
2021/07/26 01:57:24;;;;;;;;;;;;;;;;;;5111077;28;19974;-69
2021/07/26 01:59:51;;;;;;;;;;;;;;;;;;5111485;28;19908;-69
2021/07/26 02:02:17;;;;;;;;;;;;;;;;;;5111511;28;19908;-69
2021/07/26 02:04:43;;;;;;;;;;;;;;;;;;5111333;28;20276;-69
2021/07/26 02:07:09;;;;;;;;;;;;;;;;;;5111408;28;20011;-69
2021/07/26 02:09:35;;;;;;;;;;;;;;;;;;5111242;28;19908;-69
2021/07/26 02:12:01;;;;;;;;;;;;;;;;;;5110872;28;19954;-68
2021/07/26 02:14:27;;;;;;;;;;;;;;;;;;5111444;28;19912;-69
2021/07/26 02:16:53;;;;;;;;;;;;;;;;;;5111076;28;20379;-69
2021/07/26 02:19:19;;;;;;;;;;;;;;;;;;5110660;28;19908;-69
2021/07/26 02:21:45;;;;;;;;;;;;;;;;;;5111341;28;19908;-69
2021/07/26 02:24:11;;;;;;;;;;;;;;;;;;5110959;28;19998;-68
2021/07/26 02:29:07;;;;;;;;;;;;;;;;;;5091939;27;19916;-68
2021/07/26 02:33:55;;;;;;;;;;;;;;;;;;5091259;27;19912;-68
2021/07/26 02:36:21;;;;;;;;;;;;;;;;;;5090160;28;20003;-69
2021/07/26 02:38:47;;;;;;;;;;;;;;;;;;5091325;28;20329;-68
2021/07/26 02:41:48;;;;;;;;;;;;;;;;;;5091766;27;19919;-68
2021/07/26 02:44:14;;;;;;;;;;;;;;;;;;5091441;28;19982;-69
2021/07/26 02:46:40;;;;;;;;;;;;;;;;;;5090977;28;20372;-69
2021/07/26 02:49:52;;;;;;;;;;;;;;;;;;5111959;27;19916;-69
2021/07/26 02:52:18;;;;;;;;;;;;;;;;;;5111815;28;19999;-69
2021/07/26 02:54:44;;;;;;;;;;;;;;;;;;5111285;28;19999;-69
2021/07/26 02:59:29;;;;;;;;;;;;;;;;;;5091838;27;19916;-69
2021/07/26 03:01:55;;;;;;;;;;;;;;;;;;5091018;28;19999;-69
2021/07/26 03:08:18;;;;;;;;;;;;;;;;;;5091571;27;19923;-69
2021/07/26 03:10:44;;;;;;;;;;;;;;;;;;5091464;28;19916;-69
2021/07/26 03:13:10;;;;;;;;;;;;;;;;;;5090129;28;19917;-68
2021/07/26 03:17:40;;;;;;;;;;;;;;;;;;5112069;27;19916;-68
2021/07/26 03:20:06;;;;;;;;;;;;;;;;;;5111822;28;20011;-68
2021/07/26 03:22:32;;;;;;;;;;;;;;;;;;5111292;28;20339;-69
2021/07/26 03:24:58;;;;;;;;;;;;;;;;;;5111708;28;19915;-68
2021/07/26 03:27:24;;;;;;;;;;;;;;;;;;5110368;28;19915;-69
2021/07/26 03:29:50;;;;;;;;;;;;;;;;;;5111304;28;19915;-69
2021/07/26 03:32:16;;;;;;;;;;;;;;;;;;5111617;28;19907;-69
2021/07/26 03:34:42;;;;;;;;;;;;;;;;;;5111547;28;19908;-69
2021/07/26 03:37:09;;;;;;;;;;;;;;;;;;5111114;28;20419;-69
2021/07/26 03:39:35;;;;;;;;;;;;;;;;;;5111490;28;19931;-70
2021/07/26 03:42:01;;;;;;;;;;;;;;;;;;5111573;28;20544;-69
2021/07/26 03:44:27;;;;;;;;;;;;;;;;;;5111097;28;19919;-69
2021/07/26 03:46:52;;;;;;;;;;;;;;;;;;5111281;28;20405;-69
2021/07/26 03:49:18;;;;;;;;;;;;;;;;;;5110066;28;19958;-69
2021/07/26 03:51:44;;;;;;;;;;;;;;;;;;5110882;28;19908;-69
2021/07/26 03:54:10;;;;;;;;;;;;;;;;;;5111177;28;20334;-68
2021/07/26 03:56:36;;;;;;;;;;;;;;;;;;5110809;28;20015;-70
2021/07/26 03:59:02;;;;;;;;;;;;;;;;;;5111018;28;19908;-70
2021/07/26 04:01:28;;;;;;;;;;;;;;;;;;5111033;28;19966;-70
2021/07/26 04:03:54;;;;;;;;;;;;;;;;;;5110592;28;19954;-69
2021/07/26 04:06:22;;;;;;;;;;;;;;;;;;5111023;28;20008;-69
2021/07/26 04:08:50;;;;;;;;;;;;;;;;;;5109549;28;20360;-70
2021/07/26 04:12:52;;;;;;;;;;;;;;;;;;5091140;27;19916;-70
2021/07/26 04:15:18;;;;;;;;;;;;;;;;;;5090166;28;19912;-69
2021/07/26 04:17:44;;;;;;;;;;;;;;;;;;5091244;28;19999;-69
2021/07/26 04:20:11;;;;;;;;;;;;;;;;;;5091604;28;19930;-69
2021/07/26 04:22:37;;;;;;;;;;;;;;;;;;5091271;28;20360;-71
2021/07/26 04:25:03;;;;;;;;;;;;;;;;;;5090841;28;19987;-70
2021/07/26 04:27:29;;;;;;;;;;;;;;;;;;5091243;28;19943;-70
2021/07/26 04:29:55;;;;;;;;;;;;;;;;;;5089832;28;19909;-69
2021/07/26 04:32:21;;;;;;;;;;;;;;;;;;5090668;28;19917;-69
2021/07/26 04:35:55;;;;;;;;;;;;;;;;;;5091829;28;19916;-69
2021/07/26 04:38:21;;;;;;;;;;;;;;;;;;5090164;28;20432;-70
2021/07/26 04:44:09;;;;;;;;;;;;;;;;;;5092107;27;20332;-69
2021/07/26 04:46:35;;;;;;;;;;;;;;;;;;5091063;28;20011;-69
2021/07/26 04:49:01;;;;;;;;;;;;;;;;;;5091375;28;19995;-70
2021/07/26 04:51:27;;;;;;;;;;;;;;;;;;5091438;28;20442;-70
2021/07/26 04:53:53;;;;;;;;;;;;;;;;;;5091041;28;19933;-70
2021/07/26 04:56:19;;;;;;;;;;;;;;;;;;5091722;28;20017;-70
2021/07/26 04:58:45;;;;;;;;;;;;;;;;;;5089945;28;20394;-70
2021/07/26 05:01:11;;;;;;;;;;;;;;;;;;5090976;28;19933;-70
2021/07/26 05:03:37;;;;;;;;;;;;;;;;;;5090894;28;20029;-69
2021/07/26 05:08:28;;;;;;;;;;;;;;;;;;5091253;27;19922;-69
2021/07/26 05:10:55;;;;;;;;;;;;;;;;;;5091299;28;19912;-70
2021/07/26 05:13:21;;;;;;;;;;;;;;;;;;5091769;28;19909;-70
2021/07/26 05:15:47;;;;;;;;;;;;;;;;;;5090853;28;19915;-72
2021/07/26 05:18:13;;;;;;;;;;;;;;;;;;5091477;28;19908;-71
2021/07/26 05:20:39;;;;;;;;;;;;;;;;;;5091050;28;19908;-69
2021/07/26 05:23:05;;;;;;;;;;;;;;;;;;5090662;28;20278;-69
2021/07/26 05:25:31;;;;;;;;;;;;;;;;;;5091395;28;19908;-70
2021/07/26 05:27:57;;;;;;;;;;;;;;;;;;5090371;28;19987;-70
2021/07/26 05:30:23;;;;;;;;;;;;;;;;;;5090857;28;19932;-70
2021/07/26 05:32:49;;;;;;;;;;;;;;;;;;5091058;28;20295;-70
2021/07/26 05:35:15;;;;;;;;;;;;;;;;;;5090352;28;19922;-70
2021/07/26 05:37:41;;;;;;;;;;;;;;;;;;5090794;28;19909;-70
2021/07/26 05:40:08;;;;;;;;;;;;;;;;;;5090842;28;19913;-71
2021/07/26 05:42:34;;;;;;;;;;;;;;;;;;5090307;28;19908;-70
2021/07/26 05:45:25;;;;;;;;;;;;;;;;;;5091580;27;20380;-70
2021/07/26 05:47:51;;;;;;;;;;;;;;;;;;5091430;28;19991;-70
2021/07/26 05:50:18;;;;;;;;;;;;;;;;;;5090961;28;19916;-71
2021/07/26 05:52:44;;;;;;;;;;;;;;;;;;5091665;28;19908;-70
2021/07/26 05:55:10;;;;;;;;;;;;;;;;;;5091253;28;19909;-70
2021/07/26 05:57:43;;;;;;;;;;;;;;;;;;5084993;28;19923;-69
2021/07/26 06:00:09;;;;;;;;;;;;;;;;;;5060712;28;19952;-69
2021/07/26 06:02:35;;;;;;;;;;;;;;;;;;5059398;28;19948;-69
2021/07/26 06:05:01;;;;;;;;;;;;;;;;;;5057518;28;20691;-70
2021/07/26 06:07:27;;;;;;;;;;;;;;;;;;5067858;28;20375;-69
2021/07/26 06:11:35;;;;;;;;;;;;;;;;;;5069610;27;19913;-68
2021/07/26 06:14:01;;;;;;;;;;;;;;;;;;5070662;28;20061;-69
2021/07/26 06:16:27;;;;;;;;;;;;;;;;;;5066387;28;19928;-69
2021/07/26 06:18:53;;;;;;;;;;;;;;;;;;5069603;28;19927;-70
2021/07/26 06:21:20;;;;;;;;;;;;;;;;;;5065593;28;20190;-69
2021/07/26 06:23:46;;;;;;;;;;;;;;;;;;5062654;28;19916;-69
2021/07/26 06:26:12;;;;;;;;;;;;;;;;;;5066426;28;20389;-68
2021/07/26 06:28:38;;;;;;;;;;;;;;;;;;5064477;28;19916;-69
2021/07/26 06:31:06;;;;;;;;;;;;;;;;;;5066094;28;19924;-68
2021/07/26 06:33:32;;;;;;;;;;;;;;;;;;5065396;28;19908;-69
2021/07/26 06:35:58;;;;;;;;;;;;;;;;;;5083914;28;19915;-70
2021/07/26 06:38:24;;;;;;;;;;;;;;;;;;5090810;28;20295;-69
2021/07/26 06:40:50;;;;;;;;;;;;;;;;;;5090934;28;20326;-69
2021/07/26 06:45:37;;;;;;;;;;;;;;;;;;5111687;27;19916;-69
2021/07/26 06:48:03;;;;;;;;;;;;;;;;;;5111739;28;19981;-70
2021/07/26 06:50:29;;;;;;;;;;;;;;;;;;5112147;28;20368;-69
2021/07/26 06:52:55;;;;;;;;;;;;;;;;;;5111270;28;19908;-71
2021/07/26 06:57:30;;;;;;;;;;;;;;;;;;5071441;28;19913;-69
2021/07/26 06:59:56;;;;;;;;;;;;;;;;;;5070958;28;20321;-70
2021/07/26 07:02:22;;;;;;;;;;;;;;;;;;5071132;28;20004;-69
2021/07/26 07:04:48;;;;;;;;;;;;;;;;;;5070967;28;20007;-69
2021/07/26 07:07:14;;;;;;;;;;;;;;;;;;5068719;28;20365;-69
2021/07/26 07:09:40;;;;;;;;;;;;;;;;;;5070080;28;19909;-70
2021/07/26 07:12:06;;;;;;;;;;;;;;;;;;5071126;28;19908;-69
2021/07/26 07:14:32;;;;;;;;;;;;;;;;;;5070935;28;19915;-69
2021/07/26 07:16:58;;;;;;;;;;;;;;;;;;5071462;28;19921;-69
2021/07/26 07:19:24;;;;;;;;;;;;;;;;;;5071221;28;19934;-71
2021/07/26 07:21:50;;;;;;;;;;;;;;;;;;5070518;28;19909;-69
2021/07/26 07:24:16;;;;;;;;;;;;;;;;;;5070761;28;20402;-69
2021/07/26 07:26:42;;;;;;;;;;;;;;;;;;5069383;28;19908;-70
2021/07/26 07:29:08;;;;;;;;;;;;;;;;;;5070334;28;20380;-70
2021/07/26 07:31:37;;;;;;;;;;;;;;;;;;5070665;28;19915;-70
2021/07/26 07:34:03;;;;;;;;;;;;;;;;;;5070560;28;19909;-70
2021/07/26 07:36:29;;;;;;;;;;;;;;;;;;5069974;28;19986;-70
2021/07/26 07:38:56;;;;;;;;;;;;;;;;;;5070806;28;19909;-70
2021/07/26 07:41:22;;;;;;;;;;;;;;;;;;5069093;28;19909;-70
2021/07/26 07:43:48;;;;;;;;;;;;;;;;;;5069804;28;19913;-70
2021/07/26 07:46:14;;;;;;;;;;;;;;;;;;5070456;28;19916;-70
2021/07/26 07:48:40;;;;;;;;;;;;;;;;;;5069787;28;19916;-70
2021/07/26 07:51:09;;;;;;;;;;;;;;;;;;5070147;28;19951;-70
2021/07/26 07:53:35;;;;;;;;;;;;;;;;;;5070127;28;19916;-71
2021/07/26 07:56:19;;;;;;;;;;;;;;;;;;5111634;27;19938;-69
2021/07/26 07:58:49;;;;;;;;;;;;;;;;;;5111109;28;20388;-70
2021/07/26 08:01:15;;;;;;;;;;;;;;;;;;5110989;28;19914;-69
2021/07/26 08:03:40;;;;;;;;;;;;;;;;;;5111269;28;19907;-69
2021/07/26 08:06:06;;;;;;;;;;;;;;;;;;5111428;28;19912;-70
2021/07/26 08:08:32;;;;;;;;;;;;;;;;;;5111323;28;19908;-69
2021/07/26 08:10:58;;;;;;;;;;;;;;;;;;5110977;28;19955;-69
2021/07/26 08:13:24;;;;;;;;;;;;;;;;;;5111436;28;20329;-70
2021/07/26 08:15:51;;;;;;;;;;;;;;;;;;5109849;28;20394;-70
2021/07/26 08:18:17;;;;;;;;;;;;;;;;;;5110904;28;20356;-70
2021/07/26 08:20:43;;;;;;;;;;;;;;;;;;5111146;28;19962;-71
2021/07/26 08:23:09;;;;;;;;;;;;;;;;;;5111157;28;19935;-71
2021/07/26 08:25:35;;;;;;;;;;;;;;;;;;5109621;28;19908;-70
2021/07/26 08:28:01;;;;;;;;;;;;;;;;;;5109805;28;20390;-70
2021/07/26 08:30:27;;;;;;;;;;;;;;;;;;5110901;28;19991;-70
2021/07/26 08:32:53;;;;;;;;;;;;;;;;;;5110419;28;20000;-72
2021/07/26 08:35:19;;;;;;;;;;;;;;;;;;5110847;28;20372;-70
2021/07/26 08:37:45;;;;;;;;;;;;;;;;;;5110887;28;19962;-70
2021/07/26 08:40:11;;;;;;;;;;;;;;;;;;5110426;28;19908;-70
2021/07/26 08:42:37;;;;;;;;;;;;;;;;;;5110648;28;19915;-70
2021/07/26 08:45:03;;;;;;;;;;;;;;;;;;5105873;28;19908;-70
2021/07/26 08:47:29;;;;;;;;;;;;;;;;;;5064988;28;19915;-69
2021/07/26 08:49:55;;;;;;;;;;;;;;;;;;5074671;28;20379;-70
2021/07/26 08:52:22;;;;;;;;;;;;;;;;;;5075105;28;19911;-70
2021/07/26 08:54:48;;;;;;;;;;;;;;;;;;5066493;28;20477;-70
2021/07/26 08:57:14;;;;;;;;;;;;;;;;;;5056608;28;19909;-69
2021/07/26 08:59:40;;;;;;;;;;;;;;;;;;5057903;28;19912;-70
2021/07/26 09:02:06;;;;;;;;;;;;;;;;;;5068415;28;19995;-70
2021/07/26 09:04:32;;;;;;;;;;;;;;;;;;5067816;28;19909;-70
2021/07/26 09:06:58;;;;;;;;;;;;;;;;;;5062567;28;19920;-71
2021/07/26 09:09:24;;;;;;;;;;;;;;;;;;5057235;28;19920;-73
2021/07/26 09:11:50;;;;;;;;;;;;;;;;;;5055192;28;19969;-73
2021/07/26 09:14:16;;;;;;;;;;;;;;;;;;5053649;28;20786;-73
2021/07/26 09:16:42;;;;;;;;;;;;;;;;;;5056729;28;20034;-73
2021/07/26 09:19:10;;;;;;;;;;;;;;;;;;5050890;28;19916;-73
2021/07/26 09:21:36;;;;;;;;;;;;;;;;;;5060434;28;19995;-73
2021/07/26 09:24:02;;;;;;;;;;;;;;;;;;5059382;28;20007;-72
2021/07/26 09:26:28;;;;;;;;;;;;;;;;;;5058177;28;19913;-72
2021/07/26 09:28:54;;;;;;;;;;;;;;;;;;5061632;28;19966;-73
2021/07/26 09:31:20;;;;;;;;;;;;;;;;;;5062417;28;19908;-73
2021/07/26 09:33:46;;;;;;;;;;;;;;;;;;5060047;28;20384;-72
2021/07/26 09:36:13;;;;;;;;;;;;;;;;;;5044072;28;19967;-72
2021/07/26 09:38:39;;;;;;;;;;;;;;;;;;5058581;28;19974;-71
2021/07/26 09:41:05;;;;;;;;;;;;;;;;;;5064224;28;19916;-71
2021/07/26 09:43:31;;;;;;;;;;;;;;;;;;5063191;28;19927;-71
2021/07/26 09:45:59;;;;;;;;;;;;;;;;;;5059761;28;19916;-72
2021/07/26 09:48:28;;;;;;;;;;;;;;;;;;5057100;28;19914;-69
2021/07/26 09:50:54;;;;;;;;;;;;;;;;;;5057697;28;19962;-71
2021/07/26 09:53:21;;;;;;;;;;;;;;;;;;5060156;28;19920;-71
2021/07/26 09:55:47;;;;;;;;;;;;;;;;;;5069467;28;20370;-71
2021/07/26 09:58:13;;;;;;;;;;;;;;;;;;5075804;28;20007;-69
2021/07/26 10:00:39;;;;;;;;;;;;;;;;;;5073889;28;20204;-72
2021/07/26 10:03:06;;;;;;;;;;;;;;;;;;5075041;28;19923;-72
2021/07/26 10:05:32;;;;;;;;;;;;;;;;;;5073509;28;19918;-73
2021/07/26 10:07:58;;;;;;;;;;;;;;;;;;5075573;28;19925;-71
2021/07/26 10:10:24;;;;;;;;;;;;;;;;;;5073750;28;20349;-71
2021/07/26 10:12:51;;;;;;;7.22;4.35;;;;;;;;;;5075628;28;20911;-71
2021/07/26 10:15:20;;;;;;;6.85;3.92;;;;;;;;;;5072066;28;20040;-71
2021/07/26 10:17:48;;;;;;;6.43;4.00;;;;;;;;;;5076968;28;21668;-73
2021/07/26 10:20:25;;;;;;;6.00;3.75;;;;;;;;;;5073286;28;20476;-73
2021/07/26 10:23:04;;;;;;;8.30;4.22;;;;;;;;;;5075854;28;20028;-71
2021/07/26 10:25:33;;;;;;;7.13;4.03;;;;;;;;;;5072399;28;20172;-72
2021/07/26 10:28:00;;;;;;;8.75;4.70;;;;;;;;;;5073662;28;20036;-70
2021/07/26 10:30:33;;;;;;;10.27;3.65;;;;;;;;;;5076655;28;20438;-69
2021/07/26 10:33:00;;;;;;;6.88;3.97;;;;;;;;;;5074515;28;20099;-68
2021/07/26 10:35:37;;;;;;;6.90;3.80;;;;;;;;;;5076388;28;20233;-68
2021/07/26 10:38:04;;;;;;;6.30;3.65;;;;;;;;;;5075592;28;20024;-69
2021/07/26 10:40:31;;;;;;;6.90;3.83;;;;;;;;;;5074425;28;20488;-69
2021/07/26 10:43:02;;;;;;;8.15;4.03;;;;;;;;;;5075440;28;20045;-69
2021/07/26 10:45:34;;;;;;;6.05;3.60;;;;;;;;;;5070786;28;20035;-69
2021/07/26 10:48:19;;;;;;;6.43;4.05;;;;;;;;;;5072695;28;20039;-70
2021/07/26 10:50:45;;;;;;;7.07;4.22;;;;;;;;;;5071080;28;20028;-70
2021/07/26 10:53:11;;;;;;;7.18;4.30;;;;;;;;;;5071117;28;20031;-69
2021/07/26 10:55:56;;;;;;;7.82;3.78;;;;;;;;;;5060755;28;20409;-70
2021/07/26 10:58:41;;;;;;;6.53;4.00;;;;;;;;;;5056748;28;20313;-69
2021/07/26 11:01:22;;;;;;;6.60;3.97;;;;;;;;;;5060237;28;20027;-69
2021/07/26 11:03:50;;;;;;;6.30;3.60;;;;;;;;;;5060800;28;20166;-69
2021/07/26 11:06:37;;;;;;;6.30;3.67;;;;;;;;;;5059879;28;20265;-69
2021/07/26 11:09:19;;;;;;;7.22;4.25;;;;;;;;;;5062251;28;20021;-70
2021/07/26 11:11:46;;;;;;;7.27;3.90;;;;;;;;;;5060085;28;20028;-73
2021/07/26 11:14:13;;;;;;;8.35;4.55;;;;;;;;;;5060934;28;20466;-69
2021/07/26 11:17:03;;;;;;;5.80;3.70;;;;;;;;;;5060412;28;20399;-70
2021/07/26 11:19:29;;;;;;;6.75;4.13;;;;;;;;;;5053870;28;20426;-70
2021/07/26 11:21:56;;;;;;;7.70;3.92;;;;;;;;;;5052356;28;20029;-70
2021/07/26 11:24:40;;;;;;;6.53;3.60;;;;;;;;;;5058979;28;20543;-70
2021/07/26 11:27:07;;;;;;;5.57;3.60;;;;;;;;;;5059474;28;20404;-72
2021/07/26 11:29:33;;;;;;;5.65;3.50;;;;;;;;;;5051786;28;20028;-72
2021/07/26 11:31:59;;;;;;;6.13;3.92;;;;;;;;;;5082795;28;20020;-72
2021/07/26 11:34:29;;;;;;;5.65;3.85;;;;;;;;;;5092953;28;20060;-70
2021/07/26 11:37:07;;;;;;;7.95;4.15;;;;;;;;;;5072379;28;20047;-71
2021/07/26 11:39:47;;;;;;;6.65;4.32;;;;;;;;;;5044293;28;20388;-70
2021/07/26 11:42:14;;;;;;;7.68;3.90;;;;;;;;;;5052946;28;20893;-70
2021/07/26 11:44:41;;;;;;;7.55;4.20;;;;;;;;;;5056801;28;20039;-71
2021/07/26 11:47:07;;;;;;;8.20;4.80;;;;;;;;;;5052605;28;20028;-70
2021/07/26 11:49:34;;;;;;;7.80;4.47;;;;;;;;;;5051453;28;20094;-71
2021/07/26 11:52:07;;;;;;;5.88;3.90;;;;;;;;;;5033864;28;20574;-70
2021/07/26 11:54:33;;;;;;;8.95;6.10;;;;;;;;;;5059257;28;20055;-70
2021/07/26 11:57:09;;;;;;;9.05;5.22;;;;;;;;;;5068957;28;20039;-71
2021/07/26 11:59:36;;;;;;;11.57;4.82;;;;;;;;;;5066926;28;20111;-70
2021/07/26 12:02:09;;;;;;;8.63;4.72;;;;;;;;;;5067930;28;20567;-70
2021/07/26 12:04:36;;;;;;;8.30;4.75;;;;;;;;;;5074245;28;20032;-70
2021/07/26 12:07:03;;;;;;;8.55;4.30;;;;;;;;;;5072983;28;20472;-70
2021/07/26 12:09:30;;;;;;;7.03;4.03;;;;;;;;;;5071350;28;20020;-70
2021/07/26 12:12:08;;;;;;;8.63;3.80;;;;;;;;;;5074730;28;20111;-70
2021/07/26 12:14:34;;;;;;;5.45;3.67;;;;;;;;;;5075402;28;20396;-70
2021/07/26 12:17:02;;;;;;;6.35;3.85;;;;;;;;;;5074207;28;20457;-71
2021/07/26 12:19:29;;;;;;;5.95;3.63;;;;;;;;;;5074629;28;20051;-67
2021/07/26 12:21:55;;;;;;;8.00;4.20;;;;;;;;;;5069807;28;20534;-70
2021/07/26 12:24:40;;;;;;;7.40;4.18;;;;;;;;;;5068072;28;20131;-70
2021/07/26 12:27:06;;;;;;;6.07;3.72;;;;;;;;;;5075845;28;20027;-69
2021/07/26 12:29:33;;;;;;;7.25;4.07;;;;;;;;;;5072193;28;20779;-70
2021/07/26 12:32:03;;;;;;;8.55;3.92;;;;;;;;;;5071806;28;20376;-70
2021/07/26 12:34:29;;;;;;;7.47;4.50;;;;;;;;;;5070103;28;20055;-70
2021/07/26 12:37:06;;;;;;;8.13;4.32;;;;;;;;;;5072668;28;20028;-70
2021/07/26 12:39:39;;;;;;;7.43;4.13;;;;;;;;;;5066352;28;20032;-69
2021/07/26 12:42:22;;;;;;;6.60;3.60;;;;;;;;;;5076677;28;20043;-70
2021/07/26 12:44:48;;;;;;;7.53;4.10;;;;;;;;;;5096182;28;20024;-71
2021/07/26 12:47:24;;;;;;;9.77;4.18;;;;;;;;;;5096792;28;20044;-71
2021/07/26 12:49:51;;;;;;;6.75;3.50;;;;;;;;;;5096817;28;20020;-70
2021/07/26 12:52:17;;;;;;;7.28;3.60;;;;;;;;;;5096385;28;20020;-71
2021/07/26 12:54:44;;;;;;;9.13;3.92;;;;;;;;;;5096784;28;20526;-70
2021/07/26 12:57:10;;;;;;;9.68;4.28;;;;;;;;;;5096532;28;20028;-71
2021/07/26 12:59:36;;;;;;;6.20;3.95;;;;;;;;;;5096353;28;20032;-70
2021/07/26 13:02:02;;;;;;;5.82;3.80;;;;;;;;;;5096623;28;20027;-70
2021/07/26 13:04:28;;;;;;;6.07;3.85;;;;;;;;;;5096621;28;20020;-71
2021/07/26 13:06:54;;;;;;;6.07;3.80;;;;;;;;;;5096230;28;20476;-72
2021/07/26 13:09:21;;;;;;;6.22;3.08;;;;;;;;;;5095149;28;20034;-71
2021/07/26 13:11:47;;;;;;;8.10;3.90;;;;;;;;;;5096500;28;20043;-71
2021/07/26 13:14:13;;;;;;;7.47;3.80;;;;;;;;;;5095909;28;20020;-71
2021/07/26 13:16:39;;;;;;;5.30;3.58;;;;;;;;;;5096296;28;20031;-70
2021/07/26 13:19:05;;;;;;;8.77;3.67;;;;;;;;;;5096249;28;20422;-71
2021/07/26 13:21:31;;;;;;;7.15;4.00;;;;;;;;;;5095820;28;20047;-71
2021/07/26 13:23:58;;;;;;;9.35;4.07;;;;;;;;;;5096210;28;20016;-70
2021/07/26 13:26:24;;;;;;;5.43;3.47;;;;;;;;;;5095984;28;20353;-70
2021/07/26 13:28:50;;;;;;;6.15;3.40;;;;;;;;;;5096079;28;20031;-70
2021/07/26 13:31:16;;;;;;;6.50;3.45;;;;;;;;;;5094803;28;20027;-70
2021/07/26 13:33:42;;;;;;;5.85;3.22;;;;;;;;;;5095591;28;20047;-70
2021/07/26 13:36:09;;;;;;;6.82;4.03;;;;;;;;;;5095799;28;20040;-71
2021/07/26 13:38:36;;;;;;;6.57;3.92;;;;;;;;;;5094654;28;20443;-70
2021/07/26 13:41:02;;;;;;;6.10;3.53;;;;;;;;;;5095498;28;20024;-71
2021/07/26 13:43:28;;;;;;;6.72;3.90;;;;;;;;;;5095842;28;20503;-71
2021/07/26 13:45:54;;;;;;;6.13;3.55;;;;;;;;;;5095734;28;20495;-71
2021/07/26 13:48:21;;;;;;;6.07;3.60;;;;;;;;;;5095292;28;20016;-71
2021/07/26 13:50:47;;;;;;;4.28;3.03;;;;;;;;;;5094379;28;20028;-71
2021/07/26 13:53:13;;;;;;;9.05;3.47;;;;;;;;;;5095509;28;20044;-71
2021/07/26 13:55:39;;;;;;;5.70;3.78;;;;;;;;;;5094998;28;20044;-71
2021/07/26 13:58:05;;;;;;;5.55;3.58;;;;;;;;;;5095499;28;20055;-71
2021/07/26 14:00:32;;;;;;;6.28;4.13;;;;;;;;;;5095380;28;20024;-71
2021/07/26 14:02:58;;;;;;;7.38;3.47;;;;;;;;;;5093803;28;20495;-71
2021/07/26 14:05:24;;;;;;;7.53;3.95;;;;;;;;;;5095327;28;20557;-71
2021/07/26 14:07:50;;;;;;;7.78;4.50;;;;;;;;;;5095279;28;20020;-71
2021/07/26 14:10:16;;;;;;;6.68;3.83;;;;;;;;;;5094919;28;20028;-71
2021/07/26 14:12:42;;;;;;;7.18;4.05;;;;;;;;;;5095229;28;20027;-70
2021/07/26 14:15:09;;;;;;;6.57;4.45;;;;;;;;;;5093801;28;20040;-70
2021/07/26 14:17:35;;;;;;;6.72;3.70;;;;;;;;;;5094763;28;20093;-69
2021/07/26 14:20:02;;;;;;;9.88;3.33;;;;;;;;;;5093854;28;20075;-70
2021/07/26 14:22:28;;;;;;;7.07;3.83;;;;;;;;;;5094841;28;20493;-70
2021/07/26 14:24:54;;;;;;;8.52;3.30;;;;;;;;;;5094998;28;20028;-70
2021/07/26 14:27:20;;;;;;;10.88;3.88;;;;;;;;;;5094970;28;20518;-70
2021/07/26 14:29:47;;;;;;;7.13;3.95;;;;;;;;;;5094737;28;20024;-70
2021/07/26 14:32:13;;;;;;;10.63;3.92;;;;;;;;;;5094939;28;20480;-71
2021/07/26 14:34:39;;;;;;;8.85;3.80;;;;;;;;;;5094765;28;20032;-70
2021/07/26 14:37:06;;;;;;;7.35;3.30;;;;;;;;;;5094300;28;20085;-70
2021/07/26 14:39:32;;;;;;;10.90;3.72;;;;;;;;;;5094687;28;20033;-71
2021/07/26 14:41:58;;;;;;;8.13;3.67;;;;;;;;;;5094722;28;20027;-71
2021/07/26 14:44:24;;;;;;;5.68;3.20;;;;;;;;;;5094134;28;20024;-70
2021/07/26 14:46:51;;;;;;;5.97;3.08;;;;;;;;;;5094729;28;20107;-70
2021/07/26 14:49:17;;;;;;;8.48;3.17;;;;;;;;;;5094386;28;20020;-70
2021/07/26 14:51:43;;;;;;;9.18;3.63;;;;;;;;;;5094317;28;20508;-71
2021/07/26 14:54:09;;;;;;;6.68;3.80;;;;;;;;;;5094207;28;20384;-70
2021/07/26 14:56:36;;;;;;;6.03;3.80;;;;;;;;;;5094455;28;20077;-71
2021/07/26 14:59:02;;;;;;;5.53;3.28;;;;;;;;;;5093990;28;20020;-71
2021/07/26 15:01:28;;;;;;;7.20;3.72;;;;;;;;;;5094468;28;20107;-70
2021/07/26 15:03:55;;;;;;;6.53;3.80;;;;;;;;;;5092516;28;20028;-71
2021/07/26 15:06:21;;;;;;;6.57;3.22;;;;;;;;;;5093812;28;20024;-71
2021/07/26 15:08:47;;;;;;;8.18;3.72;;;;;;;;;;5094142;28;20095;-71
2021/07/26 15:11:13;;;;;;;8.00;3.08;;;;;;;;;;5094214;28;20487;-70
2021/07/26 15:13:39;;;;;;;8.18;4.05;;;;;;;;;;5093787;28;20031;-70
2021/07/26 15:16:05;;;;;;;8.73;3.60;;;;;;;;;;5094076;28;20152;-71
2021/07/26 15:18:32;;;;;;;5.43;3.35;;;;;;;;;;5092638;28;20024;-70
2021/07/26 15:20:58;;;;;;;10.00;4.38;;;;;;;;;;5093566;28;20024;-71
2021/07/26 15:23:26;;;;;;;6.60;3.67;;;;;;;;;;5092612;28;20056;-70
2021/07/26 15:25:54;;;;;;;8.90;3.97;;;;;;;;;;5093512;28;20099;-70
2021/07/26 15:28:20;;;;;;;7.53;3.72;;;;;;;;;;5094011;28;20024;-70
2021/07/26 15:30:46;;;;;;;6.20;3.10;;;;;;;;;;5092540;28;20446;-71
2021/07/26 15:33:12;;;;;;;4.63;3.05;;;;;;;;;;5093440;28;20030;-70
2021/07/26 15:35:38;;;;;;;7.43;3.15;;;;;;;;;;5092213;28;20589;-70
2021/07/26 15:38:05;;;;;;;4.32;2.75;;;;;;;;;;5093733;28;20048;-71
2021/07/26 15:40:32;;;;;;;5.53;3.30;;;;;;;;;;5093337;28;20024;-70
2021/07/26 15:42:59;;;;;;;6.68;3.25;;;;;;;;;;5093679;28;20016;-71
2021/07/26 15:45:25;;;;;;;4.88;2.88;;;;;;;;;;5092441;28;20088;-71
2021/07/26 15:47:52;;;;;;;7.07;3.70;;;;;;;;;;5093184;28;20020;-71
2021/07/26 15:50:18;;;;;;;7.82;4.05;;;;;;;;;;5093571;28;20434;-71
2021/07/26 15:52:45;;;;;;;8.43;4.50;;;;;;;;;;5092232;28;20024;-71
2021/07/26 15:55:12;;;;;;;6.28;3.75;;;;;;;;;;5092911;28;20051;-70
2021/07/26 15:57:39;;;;;;;9.23;4.38;;;;;;;;;;5093439;28;20028;-71
2021/07/26 16:00:06;;;;;;;6.30;4.28;;;;;;;;;;5093529;28;20043;-70
2021/07/26 16:02:32;;;;;;;6.55;4.00;;;;;;;;;;5093128;28;20020;-71
2021/07/26 16:04:58;;;;;;;8.93;3.90;;;;;;;;;;5093585;28;20024;-71
2021/07/26 16:07:24;;;;;;;6.75;3.65;;;;;;;;;;5093519;28;20070;-71
2021/07/26 16:09:50;;;;;;;8.15;4.22;;;;;;;;;;5092984;28;20055;-71
2021/07/26 16:12:17;;;;;;;8.68;4.00;;;;;;;;;;5092121;28;20031;-71
2021/07/26 16:14:43;;;;;;;13.40;4.07;;;;;;;;;;5091990;28;20024;-71
2021/07/26 16:17:09;;;;;;;12.27;4.13;;;;;;;;;;5094023;28;20073;-72
2021/07/26 16:19:35;;;;;;;11.55;4.78;;;;;;;;;;5097720;28;20545;-71
2021/07/26 16:22:01;;;;;;;12.32;5.53;;;;;;;;;;5097016;28;20028;-71
2021/07/26 16:24:28;;;;;;;7.80;4.72;;;;;;;;;;5097365;28;20035;-71
2021/07/26 16:26:54;;;;;;;8.95;4.40;;;;;;;;;;5097264;28;20016;-70